Kezdőlap
METAR-TAF:

METAR-TAF

Repülőterek :

Campbeltown, Skócia

földrajzi szélesség: 55-26-14N, földrajzi hosszúság: 005-41-11W, magasság: 13 m

Jelenlegi meteorológiai megfigyelések

A jelentés 3 órával és 0 perccel ezelõtt készült, 15:50 UTC
Nyugat-északnyugati szél 12 kt
Hőmérséklet 12°C
Páratartalom 62%
Légköri nyomás 1023 hPa
Látótávolság 10 km, vagy több
Kevés felhő 2200 lábon

METAR: EGEC 191550Z 30012KT 9999 FEW022 12/05 Q1023

Idő: 19:50 (18:50 UTC)

Előrejelzés

A jelentés 4 órával és 48 perccel ezelõtt készült, 14:02 UTC
Az előrejelzés 19-én 15 óra UTC és 19-én 17 óra UTC között érvényes
Észak-északnyugati szél 15 kt
Látótávolság 10 km, vagy több
Kevés felhő 2000 lábon

TAF: EGEC 191402Z 1915/1917 33015KT 9999 FEW020

Meteorológiai megfigyelések és előrejelzések több, mint 4000 repülőtéren (METAR és TAF jelentéseket).

A térképen piros és sárga pontok jelzik az elérhető meteorológiai állomásokat.

Mozgassa az egeret a pont fölött, hogy megjelenjen az állomás neve.

Azután kattintson az időjárási megfigyelések és előrejelzések megtekintéséhez.

A térkép megváltoztatása: kattintson a fekete keresztel jelölt zöld gombra ráközelítéshez, a vonallal jelölt zöld gombra távolításhoz, vagy a zöld nyilakra a szomszédos térképek eléréséhez.


METAR-TAF: